sensor_id;sensor_type;location;lat;lon;timestamp;temperature;humidity
12329;DHT22;6230;52.390;10.256;2023-04-01T00:02:07;13.30;77.10
12329;DHT22;6230;52.390;10.256;2023-04-01T00:04:32;13.30;77.20
12329;DHT22;6230;52.390;10.256;2023-04-01T00:06:58;13.30;77.10
12329;DHT22;6230;52.390;10.256;2023-04-01T00:09:25;13.30;77.20
12329;DHT22;6230;52.390;10.256;2023-04-01T00:11:51;13.30;77.10
12329;DHT22;6230;52.390;10.256;2023-04-01T00:14:16;13.30;77.20
12329;DHT22;6230;52.390;10.256;2023-04-01T00:16:42;13.30;77.30
12329;DHT22;6230;52.390;10.256;2023-04-01T00:19:07;13.30;77.20
12329;DHT22;6230;52.390;10.256;2023-04-01T00:21:33;13.30;77.20
12329;DHT22;6230;52.390;10.256;2023-04-01T00:23:59;13.30;77.20
12329;DHT22;6230;52.390;10.256;2023-04-01T00:26:24;13.40;77.20
12329;DHT22;6230;52.390;10.256;2023-04-01T00:28:50;13.30;77.20
12329;DHT22;6230;52.390;10.256;2023-04-01T00:31:16;13.30;77.20
12329;DHT22;6230;52.390;10.256;2023-04-01T00:33:41;13.30;77.20
12329;DHT22;6230;52.390;10.256;2023-04-01T00:36:12;13.30;77.20
12329;DHT22;6230;52.390;10.256;2023-04-01T00:38:39;13.30;77.20
12329;DHT22;6230;52.390;10.256;2023-04-01T00:41:06;13.30;77.10
12329;DHT22;6230;52.390;10.256;2023-04-01T00:43:32;13.30;77.20
12329;DHT22;6230;52.390;10.256;2023-04-01T00:45:57;13.30;77.20
12329;DHT22;6230;52.390;10.256;2023-04-01T00:48:26;13.30;77.20
12329;DHT22;6230;52.390;10.256;2023-04-01T00:51:06;13.30;77.10
12329;DHT22;6230;52.390;10.256;2023-04-01T00:53:34;13.30;77.20
12329;DHT22;6230;52.390;10.256;2023-04-01T00:56:05;13.30;77.10
12329;DHT22;6230;52.390;10.256;2023-04-01T00:58:36;13.30;77.20
12329;DHT22;6230;52.390;10.256;2023-04-01T01:01:03;13.30;77.20
12329;DHT22;6230;52.390;10.256;2023-04-01T01:03:29;13.20;77.10
12329;DHT22;6230;52.390;10.256;2023-04-01T01:11:43;13.30;77.40
12329;DHT22;6230;52.390;10.256;2023-04-01T01:15:09;13.20;77.20
12329;DHT22;6230;52.390;10.256;2023-04-01T01:22:52;13.20;77.00
12329;DHT22;6230;52.390;10.256;2023-04-01T01:28:47;13.20;77.60
12329;DHT22;6230;52.390;10.256;2023-04-01T01:31:51;13.20;76.90
12329;DHT22;6230;52.390;10.256;2023-04-01T01:37:19;13.20;76.90
12329;DHT22;6230;52.390;10.256;2023-04-01T01:39:51;13.20;76.90
12329;DHT22;6230;52.390;10.256;2023-04-01T01:42:19;13.10;76.90
12329;DHT22;6230;52.390;10.256;2023-04-01T01:44:47;13.10;77.00
12329;DHT22;6230;52.390;10.256;2023-04-01T01:47:14;13.10;77.10
12329;DHT22;6230;52.390;10.256;2023-04-01T01:49:42;13.10;77.10
12329;DHT22;6230;52.390;10.256;2023-04-01T01:52:08;13.10;77.10
12329;DHT22;6230;52.390;10.256;2023-04-01T01:54:34;13.10;77.10
12329;DHT22;6230;52.390;10.256;2023-04-01T01:57:06;13.10;77.10
12329;DHT22;6230;52.390;10.256;2023-04-01T01:59:35;13.10;77.20
12329;DHT22;6230;52.390;10.256;2023-04-01T02:02:03;13.10;77.10
12329;DHT22;6230;52.390;10.256;2023-04-01T02:04:35;13.10;77.00
12329;DHT22;6230;52.390;10.256;2023-04-01T02:07:16;13.10;77.00
12329;DHT22;6230;52.390;10.256;2023-04-01T02:09:44;13.10;77.10
12329;DHT22;6230;52.390;10.256;2023-04-01T02:12:12;13.10;77.00
12329;DHT22;6230;52.390;10.256;2023-04-01T02:17:15;13.10;77.00
12329;DHT22;6230;52.390;10.256;2023-04-01T02:19:54;13.00;77.00
12329;DHT22;6230;52.390;10.256;2023-04-01T02:22:24;13.10;77.00
12329;DHT22;6230;52.390;10.256;2023-04-01T02:24:53;13.00;76.90
12329;DHT22;6230;52.390;10.256;2023-04-01T02:27:19;13.10;77.00
12329;DHT22;6230;52.390;10.256;2023-04-01T02:29:45;13.00;76.90
12329;DHT22;6230;52.390;10.256;2023-04-01T02:32:10;13.00;77.00
12329;DHT22;6230;52.390;10.256;2023-04-01T02:34:38;13.00;77.00
12329;DHT22;6230;52.390;10.256;2023-04-01T02:37:03;13.00;77.00
12329;DHT22;6230;52.390;10.256;2023-04-01T02:39:29;13.00;77.00
12329;DHT22;6230;52.390;10.256;2023-04-01T02:41:55;13.00;77.00
12329;DHT22;6230;52.390;10.256;2023-04-01T02:44:21;13.00;77.10
12329;DHT22;6230;52.390;10.256;2023-04-01T02:46:46;13.00;77.10
12329;DHT22;6230;52.390;10.256;2023-04-01T02:49:12;13.00;77.10
12329;DHT22;6230;52.390;10.256;2023-04-01T02:51:38;13.00;77.20
12329;DHT22;6230;52.390;10.256;2023-04-01T02:54:03;13.00;77.10
12329;DHT22;6230;52.390;10.256;2023-04-01T02:56:29;13.00;77.10
12329;DHT22;6230;52.390;10.256;2023-04-01T02:58:55;13.00;77.10
12329;DHT22;6230;52.390;10.256;2023-04-01T03:01:21;13.00;77.10
12329;DHT22;6230;52.390;10.256;2023-04-01T03:03:47;13.00;77.10
12329;DHT22;6230;52.390;10.256;2023-04-01T03:06:14;13.00;77.20
12329;DHT22;6230;52.390;10.256;2023-04-01T03:08:40;13.00;77.20
12329;DHT22;6230;52.390;10.256;2023-04-01T03:11:06;13.00;77.30
12329;DHT22;6230;52.390;10.256;2023-04-01T03:13:32;13.00;77.30
12329;DHT22;6230;52.390;10.256;2023-04-01T03:15:58;13.00;77.40
12329;DHT22;6230;52.390;10.256;2023-04-01T03:18:23;12.90;77.50
12329;DHT22;6230;52.390;10.256;2023-04-01T03:20:49;12.90;77.50
12329;DHT22;6230;52.390;10.256;2023-04-01T03:23:15;12.90;77.60
12329;DHT22;6230;52.390;10.256;2023-04-01T03:25:42;12.90;77.60
12329;DHT22;6230;52.390;10.256;2023-04-01T03:28:08;12.90;77.70
12329;DHT22;6230;52.390;10.256;2023-04-01T03:30:33;12.90;77.70
12329;DHT22;6230;52.390;10.256;2023-04-01T03:33:00;12.90;77.80
12329;DHT22;6230;52.390;10.256;2023-04-01T03:35:26;12.90;77.80
12329;DHT22;6230;52.390;10.256;2023-04-01T03:37:52;12.90;77.90
12329;DHT22;6230;52.390;10.256;2023-04-01T03:40:18;12.90;78.00
12329;DHT22;6230;52.390;10.256;2023-04-01T03:42:44;12.90;78.00
12329;DHT22;6230;52.390;10.256;2023-04-01T03:45:10;12.90;78.00
12329;DHT22;6230;52.390;10.256;2023-04-01T03:47:37;12.90;78.00
12329;DHT22;6230;52.390;10.256;2023-04-01T03:50:03;12.90;78.00
12329;DHT22;6230;52.390;10.256;2023-04-01T03:52:29;12.90;78.00
12329;DHT22;6230;52.390;10.256;2023-04-01T03:54:55;12.90;77.90
12329;DHT22;6230;52.390;10.256;2023-04-01T03:57:21;12.90;78.00
12329;DHT22;6230;52.390;10.256;2023-04-01T03:59:46;12.90;78.10
12329;DHT22;6230;52.390;10.256;2023-04-01T04:02:11;12.90;78.10
12329;DHT22;6230;52.390;10.256;2023-04-01T04:04:37;12.90;78.10
12329;DHT22;6230;52.390;10.256;2023-04-01T04:07:03;12.90;78.10
12329;DHT22;6230;52.390;10.256;2023-04-01T04:09:30;12.90;78.10
12329;DHT22;6230;52.390;10.256;2023-04-01T04:11:55;12.90;78.20
12329;DHT22;6230;52.390;10.256;2023-04-01T04:14:22;12.90;78.20
12329;DHT22;6230;52.390;10.256;2023-04-01T04:16:47;12.90;78.30
12329;DHT22;6230;52.390;10.256;2023-04-01T04:19:13;12.90;78.30
12329;DHT22;6230;52.390;10.256;2023-04-01T04:21:40;12.90;78.40
12329;DHT22;6230;52.390;10.256;2023-04-01T04:24:06;12.90;78.40
12329;DHT22;6230;52.390;10.256;2023-04-01T04:26:31;12.90;78.40
12329;DHT22;6230;52.390;10.256;2023-04-01T04:28:57;12.90;78.40
12329;DHT22;6230;52.390;10.256;2023-04-01T04:31:24;12.90;78.40
12329;DHT22;6230;52.390;10.256;2023-04-01T04:33:50;12.90;78.50
12329;DHT22;6230;52.390;10.256;2023-04-01T04:36:17;12.90;78.50
12329;DHT22;6230;52.390;10.256;2023-04-01T04:38:43;12.90;78.40
12329;DHT22;6230;52.390;10.256;2023-04-01T04:41:17;12.90;78.50
12329;DHT22;6230;52.390;10.256;2023-04-01T04:43:49;12.90;78.60
12329;DHT22;6230;52.390;10.256;2023-04-01T04:46:15;12.80;78.60
12329;DHT22;6230;52.390;10.256;2023-04-01T04:48:40;12.80;78.50
12329;DHT22;6230;52.390;10.256;2023-04-01T04:51:06;12.80;78.60
12329;DHT22;6230;52.390;10.256;2023-04-01T04:53:32;12.80;78.60
12329;DHT22;6230;52.390;10.256;2023-04-01T04:55:57;12.80;78.70
12329;DHT22;6230;52.390;10.256;2023-04-01T04:58:23;12.80;78.80
12329;DHT22;6230;52.390;10.256;2023-04-01T05:00:49;12.80;78.70
12329;DHT22;6230;52.390;10.256;2023-04-01T05:03:14;12.80;78.80
12329;DHT22;6230;52.390;10.256;2023-04-01T05:05:51;12.80;78.90
12329;DHT22;6230;52.390;10.256;2023-04-01T05:08:17;12.80;78.90
12329;DHT22;6230;52.390;10.256;2023-04-01T05:10:42;12.80;78.80
12329;DHT22;6230;52.390;10.256;2023-04-01T05:13:08;12.80;78.80
12329;DHT22;6230;52.390;10.256;2023-04-01T05:15:35;12.80;78.80
12329;DHT22;6230;52.390;10.256;2023-04-01T05:18:00;12.80;78.80
12329;DHT22;6230;52.390;10.256;2023-04-01T05:20:26;12.80;78.90
12329;DHT22;6230;52.390;10.256;2023-04-01T05:22:58;12.80;78.80
12329;DHT22;6230;52.390;10.256;2023-04-01T05:25:24;12.80;78.90
12329;DHT22;6230;52.390;10.256;2023-04-01T05:27:50;12.80;78.90
12329;DHT22;6230;52.390;10.256;2023-04-01T05:30:16;12.80;78.90
12329;DHT22;6230;52.390;10.256;2023-04-01T05:32:41;12.80;79.00
12329;DHT22;6230;52.390;10.256;2023-04-01T05:35:08;12.80;78.90
12329;DHT22;6230;52.390;10.256;2023-04-01T05:37:37;12.80;78.90
12329;DHT22;6230;52.390;10.256;2023-04-01T05:40:03;12.80;78.90
12329;DHT22;6230;52.390;10.256;2023-04-01T05:42:29;12.80;78.90
12329;DHT22;6230;52.390;10.256;2023-04-01T05:44:54;12.80;78.90
12329;DHT22;6230;52.390;10.256;2023-04-01T05:47:21;12.80;78.90
12329;DHT22;6230;52.390;10.256;2023-04-01T05:49:46;12.80;78.90
12329;DHT22;6230;52.390;10.256;2023-04-01T05:52:12;12.80;79.60
12329;DHT22;6230;52.390;10.256;2023-04-01T05:54:37;12.80;78.90
12329;DHT22;6230;52.390;10.256;2023-04-01T05:57:03;12.80;78.90
12329;DHT22;6230;52.390;10.256;2023-04-01T05:59:29;12.80;78.90
12329;DHT22;6230;52.390;10.256;2023-04-01T06:01:56;12.80;78.90
12329;DHT22;6230;52.390;10.256;2023-04-01T06:04:22;12.80;79.00
12329;DHT22;6230;52.390;10.256;2023-04-01T06:06:48;12.80;79.00
12329;DHT22;6230;52.390;10.256;2023-04-01T06:09:19;12.80;79.00
12329;DHT22;6230;52.390;10.256;2023-04-01T06:24:12;12.90;79.10
12329;DHT22;6230;52.390;10.256;2023-04-01T06:29:55;12.90;79.00
12329;DHT22;6230;52.390;10.256;2023-04-01T06:32:37;12.90;79.10
12329;DHT22;6230;52.390;10.256;2023-04-01T06:40:48;12.90;79.30
12329;DHT22;6230;52.390;10.256;2023-04-01T06:46:13;13.00;79.10
12329;DHT22;6230;52.390;10.256;2023-04-01T06:49:07;13.00;79.20
12329;DHT22;6230;52.390;10.256;2023-04-01T06:51:50;13.10;79.10
12329;DHT22;6230;52.390;10.256;2023-04-01T06:54:42;13.10;79.10
12329;DHT22;6230;52.390;10.256;2023-04-01T06:57:29;13.10;79.20
12329;DHT22;6230;52.390;10.256;2023-04-01T06:59:58;13.10;79.30
12329;DHT22;6230;52.390;10.256;2023-04-01T07:02:34;13.10;79.20
12329;DHT22;6230;52.390;10.256;2023-04-01T07:05:02;13.20;79.40
12329;DHT22;6230;52.390;10.256;2023-04-01T07:07:41;13.20;79.40
12329;DHT22;6230;52.390;10.256;2023-04-01T07:10:20;13.20;79.50
12329;DHT22;6230;52.390;10.256;2023-04-01T07:12:51;13.20;79.50
12329;DHT22;6230;52.390;10.256;2023-04-01T07:15:19;13.30;79.50
12329;DHT22;6230;52.390;10.256;2023-04-01T07:17:48;13.30;79.50
12329;DHT22;6230;52.390;10.256;2023-04-01T07:20:30;13.30;79.50
12329;DHT22;6230;52.390;10.256;2023-04-01T07:22:59;13.40;79.60
12329;DHT22;6230;52.390;10.256;2023-04-01T07:25:29;13.40;79.40
12329;DHT22;6230;52.390;10.256;2023-04-01T07:28:02;13.50;79.40
12329;DHT22;6230;52.390;10.256;2023-04-01T07:30:33;13.50;79.40
12329;DHT22;6230;52.390;10.256;2023-04-01T07:33:29;13.50;79.20
12329;DHT22;6230;52.390;10.256;2023-04-01T07:36:13;13.60;79.20
12329;DHT22;6230;52.390;10.256;2023-04-01T07:38:47;13.60;79.10
12329;DHT22;6230;52.390;10.256;2023-04-01T07:43:56;13.60;78.90
12329;DHT22;6230;52.390;10.256;2023-04-01T07:49:16;13.60;78.70
12329;DHT22;6230;52.390;10.256;2023-04-01T07:52:06;13.60;78.60
12329;DHT22;6230;52.390;10.256;2023-04-01T07:57:22;13.60;78.70
12329;DHT22;6230;52.390;10.256;2023-04-01T08:05:27;13.80;78.50
12329;DHT22;6230;52.390;10.256;2023-04-01T08:07:59;13.80;78.40
12329;DHT22;6230;52.390;10.256;2023-04-01T08:10:37;13.80;78.30
12329;DHT22;6230;52.390;10.256;2023-04-01T08:15:46;14.00;78.20
12329;DHT22;6230;52.390;10.256;2023-04-01T08:21:20;14.10;78.00
12329;DHT22;6230;52.390;10.256;2023-04-01T08:23:51;14.10;77.70
12329;DHT22;6230;52.390;10.256;2023-04-01T08:29:13;14.10;77.40
12329;DHT22;6230;52.390;10.256;2023-04-01T08:32:05;14.20;77.30
12329;DHT22;6230;52.390;10.256;2023-04-01T08:34:36;14.20;77.20
12329;DHT22;6230;52.390;10.256;2023-04-01T08:37:12;14.20;77.10
12329;DHT22;6230;52.390;10.256;2023-04-01T08:39:58;14.30;77.00
12329;DHT22;6230;52.390;10.256;2023-04-01T08:48:48;14.50;76.60
12329;DHT22;6230;52.390;10.256;2023-04-01T08:57:11;14.80;76.30
12329;DHT22;6230;52.390;10.256;2023-04-01T08:59:57;14.90;75.80
12329;DHT22;6230;52.390;10.256;2023-04-01T09:02:56;14.90;75.40
12329;DHT22;6230;52.390;10.256;2023-04-01T09:08:41;15.00;75.20
12329;DHT22;6230;52.390;10.256;2023-04-01T09:11:30;15.00;75.00
12329;DHT22;6230;52.390;10.256;2023-04-01T09:17:09;15.00;74.40
12329;DHT22;6230;52.390;10.256;2023-04-01T09:20:15;15.00;74.40
12329;DHT22;6230;52.390;10.256;2023-04-01T09:23:15;15.10;75.30
12329;DHT22;6230;52.390;10.256;2023-04-01T09:34:40;15.30;73.50
12329;DHT22;6230;52.390;10.256;2023-04-01T09:37:32;15.40;73.50
12329;DHT22;6230;52.390;10.256;2023-04-01T09:48:21;15.40;72.80
12329;DHT22;6230;52.390;10.256;2023-04-01T09:53:42;15.30;72.60
12329;DHT22;6230;52.390;10.256;2023-04-01T10:02:27;15.30;72.60
12329;DHT22;6230;52.390;10.256;2023-04-01T10:05:17;15.40;72.40
12329;DHT22;6230;52.390;10.256;2023-04-01T10:24:57;15.90;70.50
12329;DHT22;6230;52.390;10.256;2023-04-01T10:31:07;16.00;69.80
12329;DHT22;6230;52.390;10.256;2023-04-01T10:39:37;15.90;69.40
12329;DHT22;6230;52.390;10.256;2023-04-01T10:45:26;15.80;69.00
12329;DHT22;6230;52.390;10.256;2023-04-01T10:48:18;15.80;69.00
12329;DHT22;6230;52.390;10.256;2023-04-01T10:51:16;15.80;69.30
12329;DHT22;6230;52.390;10.256;2023-04-01T10:53:56;15.90;68.80
12329;DHT22;6230;52.390;10.256;2023-04-01T10:56:40;15.80;68.90
12329;DHT22;6230;52.390;10.256;2023-04-01T11:14:03;15.50;69.20
12329;DHT22;6230;52.390;10.256;2023-04-01T11:27:55;15.30;69.60
12329;DHT22;6230;52.390;10.256;2023-04-01T11:33:26;15.40;69.60
12329;DHT22;6230;52.390;10.256;2023-04-01T11:42:28;15.40;68.90
12329;DHT22;6230;52.390;10.256;2023-04-01T11:45:07;15.40;68.90
12329;DHT22;6230;52.390;10.256;2023-04-01T11:50:31;15.40;68.80
12329;DHT22;6230;52.390;10.256;2023-04-01T12:02:16;15.40;68.70
12329;DHT22;6230;52.390;10.256;2023-04-01T12:04:59;15.40;68.80
12329;DHT22;6230;52.390;10.256;2023-04-01T12:10:28;15.40;68.90
12329;DHT22;6230;52.390;10.256;2023-04-01T12:24:09;15.70;68.60
12329;DHT22;6230;52.390;10.256;2023-04-01T12:35:18;15.70;68.60
12329;DHT22;6230;52.390;10.256;2023-04-01T12:37:54;15.80;68.60
12329;DHT22;6230;52.390;10.256;2023-04-01T12:40:28;15.80;69.30
12329;DHT22;6230;52.390;10.256;2023-04-01T12:43:17;15.90;68.60
12329;DHT22;6230;52.390;10.256;2023-04-01T12:46:12;15.90;68.70
12329;DHT22;6230;52.390;10.256;2023-04-01T12:52:30;15.90;69.00
12329;DHT22;6230;52.390;10.256;2023-04-01T12:57:50;15.80;69.20
12329;DHT22;6230;52.390;10.256;2023-04-01T13:00:31;15.80;69.50
12329;DHT22;6230;52.390;10.256;2023-04-01T13:03:16;15.80;69.50
12329;DHT22;6230;52.390;10.256;2023-04-01T13:17:15;15.50;70.90
12329;DHT22;6230;52.390;10.256;2023-04-01T13:19:56;15.50;71.00
12329;DHT22;6230;52.390;10.256;2023-04-01T13:22:39;15.40;71.10
12329;DHT22;6230;52.390;10.256;2023-04-01T13:28:20;15.30;71.80
12329;DHT22;6230;52.390;10.256;2023-04-01T13:31:02;15.20;72.00
12329;DHT22;6230;52.390;10.256;2023-04-01T13:33:45;15.20;72.20
12329;DHT22;6230;52.390;10.256;2023-04-01T13:39:15;15.10;72.30
12329;DHT22;6230;52.390;10.256;2023-04-01T13:41:50;15.00;72.30
12329;DHT22;6230;52.390;10.256;2023-04-01T13:47:23;14.80;72.50
12329;DHT22;6230;52.390;10.256;2023-04-01T14:10:07;14.30;73.50
12329;DHT22;6230;52.390;10.256;2023-04-01T14:12:46;14.20;73.90
12329;DHT22;6230;52.390;10.256;2023-04-01T14:23:57;13.90;74.00
12329;DHT22;6230;52.390;10.256;2023-04-01T14:26:55;13.80;74.30
12329;DHT22;6230;52.390;10.256;2023-04-01T14:29:36;13.70;74.30
12329;DHT22;6230;52.390;10.256;2023-04-01T14:32:25;13.70;74.30
12329;DHT22;6230;52.390;10.256;2023-04-01T14:49:02;13.40;74.50
12329;DHT22;6230;52.390;10.256;2023-04-01T14:51:32;13.40;74.60
12329;DHT22;6230;52.390;10.256;2023-04-01T14:56:43;13.30;74.60
12329;DHT22;6230;52.390;10.256;2023-04-01T14:59:15;13.40;74.60
12329;DHT22;6230;52.390;10.256;2023-04-01T15:02:08;13.30;74.70
12329;DHT22;6230;52.390;10.256;2023-04-01T15:04:42;13.20;74.80
12329;DHT22;6230;52.390;10.256;2023-04-01T15:16:23;13.10;74.70
12329;DHT22;6230;52.390;10.256;2023-04-01T15:27:55;12.70;75.00
12329;DHT22;6230;52.390;10.256;2023-04-01T15:33:17;12.60;75.00
12329;DHT22;6230;52.390;10.256;2023-04-01T15:44:01;12.40;75.00
12329;DHT22;6230;52.390;10.256;2023-04-01T16:00:56;12.40;75.30
12329;DHT22;6230;52.390;10.256;2023-04-01T16:09:20;12.30;75.30
12329;DHT22;6230;52.390;10.256;2023-04-01T16:14:58;12.20;75.60
12329;DHT22;6230;52.390;10.256;2023-04-01T16:20:50;12.10;75.30
12329;DHT22;6230;52.390;10.256;2023-04-01T16:23:40;12.10;75.30
12329;DHT22;6230;52.390;10.256;2023-04-01T16:26:36;12.00;75.50
12329;DHT22;6230;52.390;10.256;2023-04-01T16:37:54;11.80;75.40
12329;DHT22;6230;52.390;10.256;2023-04-01T16:43:11;11.80;75.60
12329;DHT22;6230;52.390;10.256;2023-04-01T16:48:15;11.70;75.40
12329;DHT22;6230;52.390;10.256;2023-04-01T16:50:51;11.70;75.30
12329;DHT22;6230;52.390;10.256;2023-04-01T16:53:52;11.60;75.30
12329;DHT22;6230;52.390;10.256;2023-04-01T16:56:36;11.60;75.60
12329;DHT22;6230;52.390;10.256;2023-04-01T16:59:07;11.60;75.30
12329;DHT22;6230;52.390;10.256;2023-04-01T17:04:54;11.60;75.40
12329;DHT22;6230;52.390;10.256;2023-04-01T17:12:35;11.50;75.20
12329;DHT22;6230;52.390;10.256;2023-04-01T17:21:10;11.40;75.30
12329;DHT22;6230;52.390;10.256;2023-04-01T17:23:59;11.40;75.30
12329;DHT22;6230;52.390;10.256;2023-04-01T17:29:46;11.30;75.20
12329;DHT22;6230;52.390;10.256;2023-04-01T17:40:30;11.10;75.20
12329;DHT22;6230;52.390;10.256;2023-04-01T17:45:54;11.00;75.20
12329;DHT22;6230;52.390;10.256;2023-04-01T17:48:49;11.00;75.30
12329;DHT22;6230;52.390;10.256;2023-04-01T17:51:30;10.90;75.40
12329;DHT22;6230;52.390;10.256;2023-04-01T17:59:49;10.80;75.30
12329;DHT22;6230;52.390;10.256;2023-04-01T18:02:40;10.80;75.30
12329;DHT22;6230;52.390;10.256;2023-04-01T18:05:30;10.70;75.30
12329;DHT22;6230;52.390;10.256;2023-04-01T18:13:54;10.60;75.60
12329;DHT22;6230;52.390;10.256;2023-04-01T18:16:46;10.60;75.50
12329;DHT22;6230;52.390;10.256;2023-04-01T18:21:55;10.50;75.50
12329;DHT22;6230;52.390;10.256;2023-04-01T18:27:37;10.50;75.70
12329;DHT22;6230;52.390;10.256;2023-04-01T18:30:25;10.50;75.60
12329;DHT22;6230;52.390;10.256;2023-04-01T18:33:01;10.40;75.60
12329;DHT22;6230;52.390;10.256;2023-04-01T18:35:48;10.40;75.50
12329;DHT22;6230;52.390;10.256;2023-04-01T18:38:25;10.50;75.70
12329;DHT22;6230;52.390;10.256;2023-04-01T18:41:12;10.50;75.50
12329;DHT22;6230;52.390;10.256;2023-04-01T18:43:48;10.50;75.50
12329;DHT22;6230;52.390;10.256;2023-04-01T18:46:39;10.60;75.40
12329;DHT22;6230;52.390;10.256;2023-04-01T18:49:21;10.50;75.30
12329;DHT22;6230;52.390;10.256;2023-04-01T18:51:55;10.50;75.30
12329;DHT22;6230;52.390;10.256;2023-04-01T18:57:14;10.50;75.20
12329;DHT22;6230;52.390;10.256;2023-04-01T18:59:50;10.50;75.20
12329;DHT22;6230;52.390;10.256;2023-04-01T19:02:41;10.50;75.20
12329;DHT22;6230;52.390;10.256;2023-04-01T19:05:30;10.50;75.30
12329;DHT22;6230;52.390;10.256;2023-04-01T19:08:16;10.40;75.20
12329;DHT22;6230;52.390;10.256;2023-04-01T19:10:55;10.30;75.10
12329;DHT22;6230;52.390;10.256;2023-04-01T19:16:28;10.20;75.20
12329;DHT22;6230;52.390;10.256;2023-04-01T19:34:53;9.90;75.50
12329;DHT22;6230;52.390;10.256;2023-04-01T19:37:50;9.90;75.60
12329;DHT22;6230;52.390;10.256;2023-04-01T19:42:48;9.90;75.30
12329;DHT22;6230;52.390;10.256;2023-04-01T19:50:34;9.70;75.40
12329;DHT22;6230;52.390;10.256;2023-04-01T19:56:04;9.70;75.60
12329;DHT22;6230;52.390;10.256;2023-04-01T19:58:41;9.70;75.60
12329;DHT22;6230;52.390;10.256;2023-04-01T20:01:14;9.70;75.40
12329;DHT22;6230;52.390;10.256;2023-04-01T20:03:50;9.60;75.60
12329;DHT22;6230;52.390;10.256;2023-04-01T20:06:25;9.70;75.60
12329;DHT22;6230;52.390;10.256;2023-04-01T20:17:15;9.50;75.30
12329;DHT22;6230;52.390;10.256;2023-04-01T20:22:52;9.40;75.40
12329;DHT22;6230;52.390;10.256;2023-04-01T20:25:22;9.40;75.40
12329;DHT22;6230;52.390;10.256;2023-04-01T20:28:04;9.30;76.20
12329;DHT22;6230;52.390;10.256;2023-04-01T20:38:35;9.20;75.70
12329;DHT22;6230;52.390;10.256;2023-04-01T20:41:12;9.20;75.70
12329;DHT22;6230;52.390;10.256;2023-04-01T20:43:58;9.20;75.70
12329;DHT22;6230;52.390;10.256;2023-04-01T20:46:44;9.20;75.70
12329;DHT22;6230;52.390;10.256;2023-04-01T20:51:54;9.30;75.70
12329;DHT22;6230;52.390;10.256;2023-04-01T20:57:05;9.20;75.40
12329;DHT22;6230;52.390;10.256;2023-04-01T21:02:32;9.20;75.40
12329;DHT22;6230;52.390;10.256;2023-04-01T21:08:11;9.10;75.20
12329;DHT22;6230;52.390;10.256;2023-04-01T21:10:46;9.10;75.30
12329;DHT22;6230;52.390;10.256;2023-04-01T21:16:11;9.10;75.40
12329;DHT22;6230;52.390;10.256;2023-04-01T21:24:36;9.00;75.40
12329;DHT22;6230;52.390;10.256;2023-04-01T21:30:44;8.90;75.40
12329;DHT22;6230;52.390;10.256;2023-04-01T21:33:27;8.90;75.40
12329;DHT22;6230;52.390;10.256;2023-04-01T21:44:46;8.70;75.30
12329;DHT22;6230;52.390;10.256;2023-04-01T22:05:13;8.80;75.20
12329;DHT22;6230;52.390;10.256;2023-04-01T22:07:52;8.80;75.00
12329;DHT22;6230;52.390;10.256;2023-04-01T22:10:54;8.70;74.90
12329;DHT22;6230;52.390;10.256;2023-04-01T22:13:23;8.60;75.00
12329;DHT22;6230;52.390;10.256;2023-04-01T22:16:16;8.60;75.00
12329;DHT22;6230;52.390;10.256;2023-04-01T22:18:55;8.60;75.10
12329;DHT22;6230;52.390;10.256;2023-04-01T22:21:33;8.50;75.10
12329;DHT22;6230;52.390;10.256;2023-04-01T22:24:31;8.50;75.00
12329;DHT22;6230;52.390;10.256;2023-04-01T22:27:07;8.50;75.10
12329;DHT22;6230;52.390;10.256;2023-04-01T22:38:34;8.50;74.90
12329;DHT22;6230;52.390;10.256;2023-04-01T22:43:43;8.60;74.70
12329;DHT22;6230;52.390;10.256;2023-04-01T22:49:32;8.50;74.50
12329;DHT22;6230;52.390;10.256;2023-04-01T22:52:08;8.50;74.30
12329;DHT22;6230;52.390;10.256;2023-04-01T22:54:52;8.40;74.30
12329;DHT22;6230;52.390;10.256;2023-04-01T23:00:28;8.30;74.20
12329;DHT22;6230;52.390;10.256;2023-04-01T23:03:07;8.20;74.10
12329;DHT22;6230;52.390;10.256;2023-04-01T23:05:36;8.20;74.20
12329;DHT22;6230;52.390;10.256;2023-04-01T23:11:20;8.20;74.10
12329;DHT22;6230;52.390;10.256;2023-04-01T23:13:50;8.20;73.90
12329;DHT22;6230;52.390;10.256;2023-04-01T23:16:40;8.20;74.00
12329;DHT22;6230;52.390;10.256;2023-04-01T23:19:29;8.20;74.70
12329;DHT22;6230;52.390;10.256;2023-04-01T23:22:12;8.20;73.70
12329;DHT22;6230;52.390;10.256;2023-04-01T23:36:02;8.10;73.60
12329;DHT22;6230;52.390;10.256;2023-04-01T23:38:40;8.20;73.50
12329;DHT22;6230;52.390;10.256;2023-04-01T23:41:29;8.10;73.60
12329;DHT22;6230;52.390;10.256;2023-04-01T23:44:05;8.20;73.60
12329;DHT22;6230;52.390;10.256;2023-04-01T23:46:34;8.20;73.30
12329;DHT22;6230;52.390;10.256;2023-04-01T23:49:01;8.10;73.20
12329;DHT22;6230;52.390;10.256;2023-04-01T23:51:35;8.10;73.20
12329;DHT22;6230;52.390;10.256;2023-04-01T23:54:18;8.00;73.20
12329;DHT22;6230;52.390;10.256;2023-04-01T23:56:47;7.90;73.10
12329;DHT22;6230;52.390;10.256;2023-04-01T23:59:17;7.90;73.20
